sensor_id;sensor_type;location;lat;lon;timestamp;temperature;humidity
56322;DHT22;42227;6.376;-10.782;2024-03-02T00:02:27;29.40;1.00
56322;DHT22;42227;6.376;-10.782;2024-03-02T00:04:55;29.20;1.00
56322;DHT22;42227;6.376;-10.782;2024-03-02T00:07:24;28.90;1.00
56322;DHT22;42227;6.376;-10.782;2024-03-02T00:09:54;28.80;1.00
56322;DHT22;42227;6.376;-10.782;2024-03-02T00:12:22;28.80;32.30
56322;DHT22;42227;6.376;-10.782;2024-03-02T00:14:51;28.90;3.90
56322;DHT22;42227;6.376;-10.782;2024-03-02T00:17:24;29.00;1.00
56322;DHT22;42227;6.376;-10.782;2024-03-02T00:19:53;28.90;1.00
56322;DHT22;42227;6.376;-10.782;2024-03-02T00:22:21;29.00;1.00
56322;DHT22;42227;6.376;-10.782;2024-03-02T00:24:50;29.00;1.00
56322;DHT22;42227;6.376;-10.782;2024-03-02T00:27:20;29.00;1.00
56322;DHT22;42227;6.376;-10.782;2024-03-02T00:29:48;29.00;1.00
56322;DHT22;42227;6.376;-10.782;2024-03-02T00:32:17;28.70;1.00
56322;DHT22;42227;6.376;-10.782;2024-03-02T00:34:45;28.60;18.40
56322;DHT22;42227;6.376;-10.782;2024-03-02T00:37:14;28.50;70.10
56322;DHT22;42227;6.376;-10.782;2024-03-02T00:39:42;28.60;97.30
56322;DHT22;42227;6.376;-10.782;2024-03-02T00:42:12;28.80;58.00
56322;DHT22;42227;6.376;-10.782;2024-03-02T00:44:40;28.90;12.90
56322;DHT22;42227;6.376;-10.782;2024-03-02T00:47:08;29.10;1.00
56322;DHT22;42227;6.376;-10.782;2024-03-02T00:49:37;29.10;1.00
56322;DHT22;42227;6.376;-10.782;2024-03-02T00:52:08;29.10;1.00
56322;DHT22;42227;6.376;-10.782;2024-03-02T00:54:36;29.20;1.00
56322;DHT22;42227;6.376;-10.782;2024-03-02T00:57:05;29.10;1.00
56322;DHT22;42227;6.376;-10.782;2024-03-02T00:59:33;29.00;1.00
56322;DHT22;42227;6.376;-10.782;2024-03-02T01:02:01;28.80;1.00
56322;DHT22;42227;6.376;-10.782;2024-03-02T01:04:30;28.60;1.00
56322;DHT22;42227;6.376;-10.782;2024-03-02T01:06:58;28.50;1.00
56322;DHT22;42227;6.376;-10.782;2024-03-02T01:09:27;28.40;1.00
56322;DHT22;42227;6.376;-10.782;2024-03-02T01:11:55;28.50;40.80
56322;DHT22;42227;6.376;-10.782;2024-03-02T01:14:23;28.70;1.00
56322;DHT22;42227;6.376;-10.782;2024-03-02T01:16:52;28.90;1.00
56322;DHT22;42227;6.376;-10.782;2024-03-02T01:19:21;29.00;1.00
56322;DHT22;42227;6.376;-10.782;2024-03-02T01:21:50;28.90;1.00
56322;DHT22;42227;6.376;-10.782;2024-03-02T01:24:18;28.90;1.00
56322;DHT22;42227;6.376;-10.782;2024-03-02T01:26:46;28.90;1.00
56322;DHT22;42227;6.376;-10.782;2024-03-02T01:29:15;28.80;1.00
56322;DHT22;42227;6.376;-10.782;2024-03-02T01:31:43;28.60;1.00
56322;DHT22;42227;6.376;-10.782;2024-03-02T01:34:12;28.40;1.00
56322;DHT22;42227;6.376;-10.782;2024-03-02T01:36:41;28.40;1.00
56322;DHT22;42227;6.376;-10.782;2024-03-02T01:39:09;28.30;1.00
56322;DHT22;42227;6.376;-10.782;2024-03-02T01:41:37;28.30;1.00
56322;DHT22;42227;6.376;-10.782;2024-03-02T01:44:06;28.50;1.00
56322;DHT22;42227;6.376;-10.782;2024-03-02T01:46:34;28.60;1.00
56322;DHT22;42227;6.376;-10.782;2024-03-02T01:49:03;28.70;1.00
56322;DHT22;42227;6.376;-10.782;2024-03-02T01:51:31;28.70;1.00
56322;DHT22;42227;6.376;-10.782;2024-03-02T01:54:00;28.50;1.00
56322;DHT22;42227;6.376;-10.782;2024-03-02T01:56:28;28.50;1.00
56322;DHT22;42227;6.376;-10.782;2024-03-02T01:58:56;28.30;1.00
56322;DHT22;42227;6.376;-10.782;2024-03-02T02:01:25;28.20;1.00
56322;DHT22;42227;6.376;-10.782;2024-03-02T02:03:54;28.20;1.00
56322;DHT22;42227;6.376;-10.782;2024-03-02T02:06:22;28.20;1.00
56322;DHT22;42227;6.376;-10.782;2024-03-02T02:08:50;28.10;1.00
56322;DHT22;42227;6.376;-10.782;2024-03-02T02:11:19;28.30;1.00
56322;DHT22;42227;6.376;-10.782;2024-03-02T02:13:48;28.40;1.00
56322;DHT22;42227;6.376;-10.782;2024-03-02T02:16:16;28.60;1.00
56322;DHT22;42227;6.376;-10.782;2024-03-02T02:18:44;28.60;1.00
56322;DHT22;42227;6.376;-10.782;2024-03-02T02:21:13;28.50;1.00
56322;DHT22;42227;6.376;-10.782;2024-03-02T02:23:41;28.30;1.00
56322;DHT22;42227;6.376;-10.782;2024-03-02T02:26:10;28.20;1.00
56322;DHT22;42227;6.376;-10.782;2024-03-02T02:28:38;28.10;1.00
56322;DHT22;42227;6.376;-10.782;2024-03-02T02:31:07;28.00;1.00
56322;DHT22;42227;6.376;-10.782;2024-03-02T02:33:39;28.10;1.00
56322;DHT22;42227;6.376;-10.782;2024-03-02T02:36:08;28.10;1.00
56322;DHT22;42227;6.376;-10.782;2024-03-02T02:38:40;28.10;1.00
56322;DHT22;42227;6.376;-10.782;2024-03-02T02:41:10;28.20;1.00
56322;DHT22;42227;6.376;-10.782;2024-03-02T02:43:38;28.30;1.00
56322;DHT22;42227;6.376;-10.782;2024-03-02T02:46:06;28.30;1.00
56322;DHT22;42227;6.376;-10.782;2024-03-02T02:48:35;28.10;1.00
56322;DHT22;42227;6.376;-10.782;2024-03-02T02:51:04;28.10;1.00
56322;DHT22;42227;6.376;-10.782;2024-03-02T02:53:32;28.00;1.00
56322;DHT22;42227;6.376;-10.782;2024-03-02T02:56:00;27.90;1.00
56322;DHT22;42227;6.376;-10.782;2024-03-02T02:58:29;28.00;1.00
56322;DHT22;42227;6.376;-10.782;2024-03-02T03:01:00;28.20;1.00
56322;DHT22;42227;6.376;-10.782;2024-03-02T03:03:28;28.30;1.00
56322;DHT22;42227;6.376;-10.782;2024-03-02T03:05:57;28.30;1.00
56322;DHT22;42227;6.376;-10.782;2024-03-02T03:08:25;28.40;1.00
56322;DHT22;42227;6.376;-10.782;2024-03-02T03:10:53;28.50;1.00
56322;DHT22;42227;6.376;-10.782;2024-03-02T03:13:22;28.40;1.00
56322;DHT22;42227;6.376;-10.782;2024-03-02T03:15:50;28.20;1.00
56322;DHT22;42227;6.376;-10.782;2024-03-02T03:18:20;28.10;1.00
56322;DHT22;42227;6.376;-10.782;2024-03-02T03:20:48;27.90;1.00
56322;DHT22;42227;6.376;-10.782;2024-03-02T03:23:17;27.80;1.00
56322;DHT22;42227;6.376;-10.782;2024-03-02T03:25:45;27.80;1.00
56322;DHT22;42227;6.376;-10.782;2024-03-02T03:28:14;28.00;1.00
56322;DHT22;42227;6.376;-10.782;2024-03-02T03:30:42;28.10;1.00
56322;DHT22;42227;6.376;-10.782;2024-03-02T03:33:10;28.00;1.00
56322;DHT22;42227;6.376;-10.782;2024-03-02T03:35:39;27.90;1.00
56322;DHT22;42227;6.376;-10.782;2024-03-02T03:38:07;27.90;1.00
56322;DHT22;42227;6.376;-10.782;2024-03-02T03:40:35;27.90;1.00
56322;DHT22;42227;6.376;-10.782;2024-03-02T03:43:04;27.80;1.00
56322;DHT22;42227;6.376;-10.782;2024-03-02T03:45:32;27.60;1.00
56322;DHT22;42227;6.376;-10.782;2024-03-02T03:48:01;27.60;1.00
56322;DHT22;42227;6.376;-10.782;2024-03-02T03:50:30;27.60;1.00
56322;DHT22;42227;6.376;-10.782;2024-03-02T03:52:58;27.50;19.40
56322;DHT22;42227;6.376;-10.782;2024-03-02T03:55:26;27.50;42.20
56322;DHT22;42227;6.376;-10.782;2024-03-02T03:57:55;27.60;31.90
56322;DHT22;42227;6.376;-10.782;2024-03-02T04:00:23;27.60;21.60
56322;DHT22;42227;6.376;-10.782;2024-03-02T04:02:52;27.60;1.00
56322;DHT22;42227;6.376;-10.782;2024-03-02T04:05:21;27.60;1.00
56322;DHT22;42227;6.376;-10.782;2024-03-02T04:07:49;27.50;1.00
56322;DHT22;42227;6.376;-10.782;2024-03-02T04:10:17;27.50;5.00
56322;DHT22;42227;6.376;-10.782;2024-03-02T04:12:46;27.40;11.90
56322;DHT22;42227;6.376;-10.782;2024-03-02T04:15:14;27.40;28.10
56322;DHT22;42227;6.376;-10.782;2024-03-02T04:17:43;27.30;58.00
56322;DHT22;42227;6.376;-10.782;2024-03-02T04:20:11;27.40;35.10
56322;DHT22;42227;6.376;-10.782;2024-03-02T04:22:40;27.50;3.20
56322;DHT22;42227;6.376;-10.782;2024-03-02T04:25:08;27.50;1.00
56322;DHT22;42227;6.376;-10.782;2024-03-02T04:27:37;27.40;1.00
56322;DHT22;42227;6.376;-10.782;2024-03-02T04:30:06;27.40;1.00
56322;DHT22;42227;6.376;-10.782;2024-03-02T04:32:34;27.20;1.00
56322;DHT22;42227;6.376;-10.782;2024-03-02T04:35:03;27.00;47.10
56322;DHT22;42227;6.376;-10.782;2024-03-02T04:37:34;27.10;56.70
56322;DHT22;42227;6.376;-10.782;2024-03-02T04:40:02;27.10;68.00
56322;DHT22;42227;6.376;-10.782;2024-03-02T04:42:31;27.10;68.80
56322;DHT22;42227;6.376;-10.782;2024-03-02T04:45:00;27.30;62.50
56322;DHT22;42227;6.376;-10.782;2024-03-02T04:47:28;27.40;23.70
56322;DHT22;42227;6.376;-10.782;2024-03-02T04:49:56;27.30;4.20
56322;DHT22;42227;6.376;-10.782;2024-03-02T04:52:25;27.50;1.00
56322;DHT22;42227;6.376;-10.782;2024-03-02T04:54:53;27.40;1.00
56322;DHT22;42227;6.376;-10.782;2024-03-02T04:57:22;27.30;1.00
56322;DHT22;42227;6.376;-10.782;2024-03-02T04:59:50;27.30;1.00
56322;DHT22;42227;6.376;-10.782;2024-03-02T05:02:19;27.20;4.30
56322;DHT22;42227;6.376;-10.782;2024-03-02T05:04:47;27.20;28.30
56322;DHT22;42227;6.376;-10.782;2024-03-02T05:07:15;27.20;70.90
56322;DHT22;42227;6.376;-10.782;2024-03-02T05:09:44;27.20;92.80
56322;DHT22;42227;6.376;-10.782;2024-03-02T05:12:12;27.30;72.30
56322;DHT22;42227;6.376;-10.782;2024-03-02T05:14:41;27.40;30.00
56322;DHT22;42227;6.376;-10.782;2024-03-02T05:17:09;27.40;27.70
56322;DHT22;42227;6.376;-10.782;2024-03-02T05:19:37;27.30;1.00
56322;DHT22;42227;6.376;-10.782;2024-03-02T05:22:06;27.20;13.60
56322;DHT22;42227;6.376;-10.782;2024-03-02T05:24:34;27.10;38.30
56322;DHT22;42227;6.376;-10.782;2024-03-02T05:27:02;27.10;51.20
56322;DHT22;42227;6.376;-10.782;2024-03-02T05:29:31;27.10;88.40
56322;DHT22;42227;6.376;-10.782;2024-03-02T05:31:59;27.10;99.90
56322;DHT22;42227;6.376;-10.782;2024-03-02T05:34:28;27.20;99.90
56322;DHT22;42227;6.376;-10.782;2024-03-02T05:36:56;27.20;82.40
56322;DHT22;42227;6.376;-10.782;2024-03-02T05:39:25;27.20;10.30
56322;DHT22;42227;6.376;-10.782;2024-03-02T05:41:53;27.20;1.00
56322;DHT22;42227;6.376;-10.782;2024-03-02T05:44:22;27.20;1.00
56322;DHT22;42227;6.376;-10.782;2024-03-02T05:46:50;26.80;60.50
56322;DHT22;42227;6.376;-10.782;2024-03-02T05:49:19;26.90;96.90
56322;DHT22;42227;6.376;-10.782;2024-03-02T05:51:47;26.60;99.90
56322;DHT22;42227;6.376;-10.782;2024-03-02T05:54:15;26.50;99.90
56322;DHT22;42227;6.376;-10.782;2024-03-02T05:56:44;26.70;99.90
56322;DHT22;42227;6.376;-10.782;2024-03-02T05:59:12;26.80;99.90
56322;DHT22;42227;6.376;-10.782;2024-03-02T06:01:47;26.90;99.90
56322;DHT22;42227;6.376;-10.782;2024-03-02T06:04:17;26.90;99.90
56322;DHT22;42227;6.376;-10.782;2024-03-02T06:06:45;27.10;99.90
56322;DHT22;42227;6.376;-10.782;2024-03-02T06:09:14;27.10;99.90
56322;DHT22;42227;6.376;-10.782;2024-03-02T06:11:42;27.10;99.90
56322;DHT22;42227;6.376;-10.782;2024-03-02T06:14:10;27.00;99.90
56322;DHT22;42227;6.376;-10.782;2024-03-02T06:16:39;26.90;99.90
56322;DHT22;42227;6.376;-10.782;2024-03-02T06:19:07;26.90;99.90
56322;DHT22;42227;6.376;-10.782;2024-03-02T06:21:36;26.90;99.90
56322;DHT22;42227;6.376;-10.782;2024-03-02T06:24:04;26.90;99.90
56322;DHT22;42227;6.376;-10.782;2024-03-02T06:26:33;26.90;99.90
56322;DHT22;42227;6.376;-10.782;2024-03-02T06:29:01;26.90;99.90
56322;DHT22;42227;6.376;-10.782;2024-03-02T06:31:30;27.00;99.90
56322;DHT22;42227;6.376;-10.782;2024-03-02T06:33:58;26.90;99.90
56322;DHT22;42227;6.376;-10.782;2024-03-02T06:36:27;26.90;99.90
56322;DHT22;42227;6.376;-10.782;2024-03-02T06:38:55;26.70;99.90
56322;DHT22;42227;6.376;-10.782;2024-03-02T06:41:24;26.70;99.90
56322;DHT22;42227;6.376;-10.782;2024-03-02T06:43:52;26.70;99.90
56322;DHT22;42227;6.376;-10.782;2024-03-02T06:46:20;26.70;99.90
56322;DHT22;42227;6.376;-10.782;2024-03-02T06:48:49;26.70;99.90
56322;DHT22;42227;6.376;-10.782;2024-03-02T06:51:17;26.80;99.90
56322;DHT22;42227;6.376;-10.782;2024-03-02T06:53:45;26.90;99.90
56322;DHT22;42227;6.376;-10.782;2024-03-02T06:56:14;26.90;99.90
56322;DHT22;42227;6.376;-10.782;2024-03-02T06:58:42;26.90;99.90
56322;DHT22;42227;6.376;-10.782;2024-03-02T07:01:10;26.90;99.90
56322;DHT22;42227;6.376;-10.782;2024-03-02T07:03:39;26.90;99.90
56322;DHT22;42227;6.376;-10.782;2024-03-02T07:06:07;26.80;99.90
56322;DHT22;42227;6.376;-10.782;2024-03-02T07:08:35;26.70;99.90
56322;DHT22;42227;6.376;-10.782;2024-03-02T07:11:04;26.70;99.90
56322;DHT22;42227;6.376;-10.782;2024-03-02T07:13:32;26.90;99.90
56322;DHT22;42227;6.376;-10.782;2024-03-02T07:16:00;26.90;99.90
56322;DHT22;42227;6.376;-10.782;2024-03-02T07:18:30;26.90;99.90
56322;DHT22;42227;6.376;-10.782;2024-03-02T07:20:59;26.90;99.90
56322;DHT22;42227;6.376;-10.782;2024-03-02T07:23:27;26.90;99.90
56322;DHT22;42227;6.376;-10.782;2024-03-02T07:25:59;26.90;99.90
56322;DHT22;42227;6.376;-10.782;2024-03-02T07:28:31;26.90;99.90
56322;DHT22;42227;6.376;-10.782;2024-03-02T07:31:03;26.90;99.90
56322;DHT22;42227;6.376;-10.782;2024-03-02T07:33:34;26.90;99.90
56322;DHT22;42227;6.376;-10.782;2024-03-02T07:36:02;26.90;99.90
56322;DHT22;42227;6.376;-10.782;2024-03-02T07:38:32;27.00;99.90
56322;DHT22;42227;6.376;-10.782;2024-03-02T07:41:00;27.10;99.90
56322;DHT22;42227;6.376;-10.782;2024-03-02T07:43:29;27.10;99.90
56322;DHT22;42227;6.376;-10.782;2024-03-02T07:45:57;27.20;99.90
56322;DHT22;42227;6.376;-10.782;2024-03-02T07:48:26;27.30;99.90
56322;DHT22;42227;6.376;-10.782;2024-03-02T07:50:54;27.20;99.90
56322;DHT22;42227;6.376;-10.782;2024-03-02T07:53:23;27.20;99.90
56322;DHT22;42227;6.376;-10.782;2024-03-02T07:55:51;27.30;99.90
56322;DHT22;42227;6.376;-10.782;2024-03-02T07:58:20;27.30;99.90
56322;DHT22;42227;6.376;-10.782;2024-03-02T08:00:48;27.40;90.80
56322;DHT22;42227;6.376;-10.782;2024-03-02T08:03:20;27.50;64.40
56322;DHT22;42227;6.376;-10.782;2024-03-02T08:05:49;27.70;1.00
56322;DHT22;42227;6.376;-10.782;2024-03-02T08:08:17;27.80;1.00
56322;DHT22;42227;6.376;-10.782;2024-03-02T08:10:45;28.00;1.00
56322;DHT22;42227;6.376;-10.782;2024-03-02T08:13:14;28.20;1.00
56322;DHT22;42227;6.376;-10.782;2024-03-02T08:15:42;28.30;1.00
56322;DHT22;42227;6.376;-10.782;2024-03-02T08:18:11;28.40;99.90
56322;DHT22;42227;6.376;-10.782;2024-03-02T08:20:40;28.60;99.90
56322;DHT22;42227;6.376;-10.782;2024-03-02T08:23:08;28.80;99.90
56322;DHT22;42227;6.376;-10.782;2024-03-02T08:25:37;28.90;99.90
56322;DHT22;42227;6.376;-10.782;2024-03-02T08:28:06;29.20;99.90
56322;DHT22;42227;6.376;-10.782;2024-03-02T08:30:34;29.30;99.90
56322;DHT22;42227;6.376;-10.782;2024-03-02T08:33:03;29.60;99.90
56322;DHT22;42227;6.376;-10.782;2024-03-02T08:35:31;29.90;99.90
56322;DHT22;42227;6.376;-10.782;2024-03-02T08:38:00;30.10;99.90
56322;DHT22;42227;6.376;-10.782;2024-03-02T08:40:29;30.10;99.90
56322;DHT22;42227;6.376;-10.782;2024-03-02T08:42:57;30.10;99.90
56322;DHT22;42227;6.376;-10.782;2024-03-02T08:45:26;30.20;99.90
56322;DHT22;42227;6.376;-10.782;2024-03-02T08:47:54;30.20;99.90
56322;DHT22;42227;6.376;-10.782;2024-03-02T08:50:23;30.30;99.90
56322;DHT22;42227;6.376;-10.782;2024-03-02T08:52:51;30.50;99.90
56322;DHT22;42227;6.376;-10.782;2024-03-02T08:55:19;30.50;99.90
56322;DHT22;42227;6.376;-10.782;2024-03-02T08:57:48;30.70;99.90
56322;DHT22;42227;6.376;-10.782;2024-03-02T09:00:16;30.70;96.20
56322;DHT22;42227;6.376;-10.782;2024-03-02T09:02:45;30.70;89.20
56322;DHT22;42227;6.376;-10.782;2024-03-02T09:05:14;30.70;85.30
56322;DHT22;42227;6.376;-10.782;2024-03-02T09:07:42;30.80;82.30
56322;DHT22;42227;6.376;-10.782;2024-03-02T09:10:11;30.90;76.10
56322;DHT22;42227;6.376;-10.782;2024-03-02T09:12:39;31.10;55.20
56322;DHT22;42227;6.376;-10.782;2024-03-02T09:18:20;31.50;23.20
56322;DHT22;42227;6.376;-10.782;2024-03-02T09:20:49;31.60;18.80
56322;DHT22;42227;6.376;-10.782;2024-03-02T09:23:17;31.60;14.90
56322;DHT22;42227;6.376;-10.782;2024-03-02T09:25:45;31.60;13.10
56322;DHT22;42227;6.376;-10.782;2024-03-02T09:28:15;31.60;15.70
56322;DHT22;42227;6.376;-10.782;2024-03-02T09:30:44;31.80;2.10
56322;DHT22;42227;6.376;-10.782;2024-03-02T09:33:12;31.90;1.00
56322;DHT22;42227;6.376;-10.782;2024-03-02T09:35:43;32.10;1.00
56322;DHT22;42227;6.376;-10.782;2024-03-02T09:38:12;32.10;1.00
56322;DHT22;42227;6.376;-10.782;2024-03-02T09:40:42;32.00;1.00
56322;DHT22;42227;6.376;-10.782;2024-03-02T09:43:10;31.80;1.00
56322;DHT22;42227;6.376;-10.782;2024-03-02T09:45:39;31.80;1.00
56322;DHT22;42227;6.376;-10.782;2024-03-02T09:48:08;31.80;1.00
56322;DHT22;42227;6.376;-10.782;2024-03-02T09:50:36;31.80;1.00
56322;DHT22;42227;6.376;-10.782;2024-03-02T09:53:05;31.80;1.00
56322;DHT22;42227;6.376;-10.782;2024-03-02T09:55:35;32.00;1.00
56322;DHT22;42227;6.376;-10.782;2024-03-02T09:58:03;31.90;1.00
56322;DHT22;42227;6.376;-10.782;2024-03-02T10:00:32;31.90;1.00
56322;DHT22;42227;6.376;-10.782;2024-03-02T10:03:00;31.90;1.00
56322;DHT22;42227;6.376;-10.782;2024-03-02T10:05:29;31.80;1.00
56322;DHT22;42227;6.376;-10.782;2024-03-02T10:08:01;31.70;1.00
56322;DHT22;42227;6.376;-10.782;2024-03-02T10:10:40;31.60;1.00
56322;DHT22;42227;6.376;-10.782;2024-03-02T10:13:10;31.60;1.00
56322;DHT22;42227;6.376;-10.782;2024-03-02T10:15:40;31.60;1.00
56322;DHT22;42227;6.376;-10.782;2024-03-02T10:18:12;31.60;1.00
56322;DHT22;42227;6.376;-10.782;2024-03-02T10:20:41;31.50;1.00
56322;DHT22;42227;6.376;-10.782;2024-03-02T10:23:16;31.50;1.00
56322;DHT22;42227;6.376;-10.782;2024-03-02T10:25:45;31.60;1.60
56322;DHT22;42227;6.376;-10.782;2024-03-02T10:28:24;31.60;6.60
56322;DHT22;42227;6.376;-10.782;2024-03-02T10:30:53;31.80;1.00
56322;DHT22;42227;6.376;-10.782;2024-03-02T10:33:22;31.80;1.00
56322;DHT22;42227;6.376;-10.782;2024-03-02T10:35:50;31.60;1.00
56322;DHT22;42227;6.376;-10.782;2024-03-02T10:38:18;31.80;1.00
56322;DHT22;42227;6.376;-10.782;2024-03-02T10:40:47;31.80;1.00
56322;DHT22;42227;6.376;-10.782;2024-03-02T10:43:16;31.90;1.00
56322;DHT22;42227;6.376;-10.782;2024-03-02T10:45:48;32.10;1.00
56322;DHT22;42227;6.376;-10.782;2024-03-02T10:48:17;32.00;1.00
56322;DHT22;42227;6.376;-10.782;2024-03-02T10:50:45;32.00;1.00
56322;DHT22;42227;6.376;-10.782;2024-03-02T10:53:14;31.80;1.00
56322;DHT22;42227;6.376;-10.782;2024-03-02T10:55:42;31.90;1.00
56322;DHT22;42227;6.376;-10.782;2024-03-02T10:58:12;32.00;1.00
56322;DHT22;42227;6.376;-10.782;2024-03-02T11:00:43;32.10;1.00
56322;DHT22;42227;6.376;-10.782;2024-03-02T11:03:12;32.00;1.00
56322;DHT22;42227;6.376;-10.782;2024-03-02T11:05:44;32.20;1.00
56322;DHT22;42227;6.376;-10.782;2024-03-02T11:08:13;32.10;1.00
56322;DHT22;42227;6.376;-10.782;2024-03-02T11:13:23;32.10;1.00
56322;DHT22;42227;6.376;-10.782;2024-03-02T11:15:58;32.00;1.00
56322;DHT22;42227;6.376;-10.782;2024-03-02T11:18:28;32.10;1.00
56322;DHT22;42227;6.376;-10.782;2024-03-02T11:20:57;32.10;1.00
56322;DHT22;42227;6.376;-10.782;2024-03-02T11:23:33;31.90;1.00
56322;DHT22;42227;6.376;-10.782;2024-03-02T11:26:21;31.80;1.00
56322;DHT22;42227;6.376;-10.782;2024-03-02T11:28:49;31.80;1.00
56322;DHT22;42227;6.376;-10.782;2024-03-02T11:31:18;31.80;1.00
56322;DHT22;42227;6.376;-10.782;2024-03-02T11:33:46;31.80;1.00
56322;DHT22;42227;6.376;-10.782;2024-03-02T11:36:16;31.70;1.00
56322;DHT22;42227;6.376;-10.782;2024-03-02T11:38:44;31.70;1.00
56322;DHT22;42227;6.376;-10.782;2024-03-02T11:41:13;31.70;1.00
56322;DHT22;42227;6.376;-10.782;2024-03-02T11:43:42;31.80;1.00
56322;DHT22;42227;6.376;-10.782;2024-03-02T11:46:10;31.90;1.00
56322;DHT22;42227;6.376;-10.782;2024-03-02T11:48:40;31.90;1.00
56322;DHT22;42227;6.376;-10.782;2024-03-02T11:51:08;31.90;1.00
56322;DHT22;42227;6.376;-10.782;2024-03-02T11:53:39;31.80;1.00
56322;DHT22;42227;6.376;-10.782;2024-03-02T11:56:09;31.80;1.00
56322;DHT22;42227;6.376;-10.782;2024-03-02T11:58:39;31.60;1.00
56322;DHT22;42227;6.376;-10.782;2024-03-02T12:01:07;31.60;1.00
56322;DHT22;42227;6.376;-10.782;2024-03-02T12:03:36;31.70;1.00
56322;DHT22;42227;6.376;-10.782;2024-03-02T12:06:05;31.60;1.00
56322;DHT22;42227;6.376;-10.782;2024-03-02T12:08:35;31.50;1.00
56322;DHT22;42227;6.376;-10.782;2024-03-02T12:11:04;31.40;1.00
56322;DHT22;42227;6.376;-10.782;2024-03-02T12:13:32;31.40;1.00
56322;DHT22;42227;6.376;-10.782;2024-03-02T12:16:01;31.30;1.00
56322;DHT22;42227;6.376;-10.782;2024-03-02T12:18:29;31.20;1.00
56322;DHT22;42227;6.376;-10.782;2024-03-02T12:20:58;31.30;1.00
56322;DHT22;42227;6.376;-10.782;2024-03-02T12:23:26;31.50;1.00
56322;DHT22;42227;6.376;-10.782;2024-03-02T12:25:55;31.80;1.00
56322;DHT22;42227;6.376;-10.782;2024-03-02T12:28:24;31.90;1.00
56322;DHT22;42227;6.376;-10.782;2024-03-02T12:30:52;31.90;1.00
56322;DHT22;42227;6.376;-10.782;2024-03-02T12:33:21;31.90;1.00
56322;DHT22;42227;6.376;-10.782;2024-03-02T12:35:50;32.00;1.00
56322;DHT22;42227;6.376;-10.782;2024-03-02T12:38:18;32.20;1.00
56322;DHT22;42227;6.376;-10.782;2024-03-02T12:40:50;32.40;1.00
56322;DHT22;42227;6.376;-10.782;2024-03-02T12:43:19;32.40;1.00
56322;DHT22;42227;6.376;-10.782;2024-03-02T12:45:48;32.40;1.00
56322;DHT22;42227;6.376;-10.782;2024-03-02T12:48:16;32.30;1.00
56322;DHT22;42227;6.376;-10.782;2024-03-02T12:50:45;32.30;1.00
56322;DHT22;42227;6.376;-10.782;2024-03-02T12:53:16;32.00;1.00
56322;DHT22;42227;6.376;-10.782;2024-03-02T12:55:44;32.00;1.00
56322;DHT22;42227;6.376;-10.782;2024-03-02T12:58:19;32.20;1.00
56322;DHT22;42227;6.376;-10.782;2024-03-02T13:00:49;32.20;1.00
56322;DHT22;42227;6.376;-10.782;2024-03-02T13:03:18;32.30;1.00
56322;DHT22;42227;6.376;-10.782;2024-03-02T13:05:50;32.30;1.00
56322;DHT22;42227;6.376;-10.782;2024-03-02T13:08:18;32.20;1.00
56322;DHT22;42227;6.376;-10.782;2024-03-02T13:10:47;32.00;1.00
56322;DHT22;42227;6.376;-10.782;2024-03-02T13:13:15;32.10;1.00
56322;DHT22;42227;6.376;-10.782;2024-03-02T13:15:44;32.30;1.00
56322;DHT22;42227;6.376;-10.782;2024-03-02T13:18:13;32.30;1.00
56322;DHT22;42227;6.376;-10.782;2024-03-02T13:20:41;32.20;1.00
56322;DHT22;42227;6.376;-10.782;2024-03-02T13:23:09;32.20;1.00
56322;DHT22;42227;6.376;-10.782;2024-03-02T13:25:38;32.10;1.00
56322;DHT22;42227;6.376;-10.782;2024-03-02T13:28:07;31.80;1.00
56322;DHT22;42227;6.376;-10.782;2024-03-02T13:30:35;31.80;1.00
56322;DHT22;42227;6.376;-10.782;2024-03-02T13:33:04;32.00;1.00
56322;DHT22;42227;6.376;-10.782;2024-03-02T13:35:32;32.30;1.00
56322;DHT22;42227;6.376;-10.782;2024-03-02T13:38:01;32.30;1.00
56322;DHT22;42227;6.376;-10.782;2024-03-02T13:40:29;32.40;1.00
56322;DHT22;42227;6.376;-10.782;2024-03-02T13:42:58;32.40;1.00
56322;DHT22;42227;6.376;-10.782;2024-03-02T13:45:26;32.40;1.00
56322;DHT22;42227;6.376;-10.782;2024-03-02T13:47:54;32.30;1.00
56322;DHT22;42227;6.376;-10.782;2024-03-02T13:50:23;32.40;1.00
56322;DHT22;42227;6.376;-10.782;2024-03-02T13:52:51;32.40;1.00
56322;DHT22;42227;6.376;-10.782;2024-03-02T13:55:19;32.50;1.00
56322;DHT22;42227;6.376;-10.782;2024-03-02T13:57:48;32.40;1.00
56322;DHT22;42227;6.376;-10.782;2024-03-02T14:00:17;32.60;1.00
56322;DHT22;42227;6.376;-10.782;2024-03-02T14:02:46;32.60;1.00
56322;DHT22;42227;6.376;-10.782;2024-03-02T14:05:14;32.30;1.00
56322;DHT22;42227;6.376;-10.782;2024-03-02T14:07:43;32.20;1.00
56322;DHT22;42227;6.376;-10.782;2024-03-02T14:10:11;32.30;1.00
56322;DHT22;42227;6.376;-10.782;2024-03-02T14:12:41;32.30;1.00
56322;DHT22;42227;6.376;-10.782;2024-03-02T14:15:09;32.30;1.00
56322;DHT22;42227;6.376;-10.782;2024-03-02T14:17:38;32.20;1.00
56322;DHT22;42227;6.376;-10.782;2024-03-02T14:20:07;32.20;1.00
56322;DHT22;42227;6.376;-10.782;2024-03-02T14:22:35;32.20;1.00
56322;DHT22;42227;6.376;-10.782;2024-03-02T14:25:04;32.20;1.00
56322;DHT22;42227;6.376;-10.782;2024-03-02T14:27:33;32.30;1.00
56322;DHT22;42227;6.376;-10.782;2024-03-02T14:30:21;32.50;1.00
56322;DHT22;42227;6.376;-10.782;2024-03-02T14:32:50;32.50;1.00
56322;DHT22;42227;6.376;-10.782;2024-03-02T14:35:18;32.40;1.00
56322;DHT22;42227;6.376;-10.782;2024-03-02T14:37:46;32.30;1.00
56322;DHT22;42227;6.376;-10.782;2024-03-02T14:40:15;32.20;1.00
56322;DHT22;42227;6.376;-10.782;2024-03-02T14:42:43;32.20;1.00
56322;DHT22;42227;6.376;-10.782;2024-03-02T14:45:12;32.10;1.00
56322;DHT22;42227;6.376;-10.782;2024-03-02T14:47:40;32.20;1.00
56322;DHT22;42227;6.376;-10.782;2024-03-02T14:50:09;32.10;1.00
56322;DHT22;42227;6.376;-10.782;2024-03-02T14:52:37;32.10;1.00
56322;DHT22;42227;6.376;-10.782;2024-03-02T14:55:07;32.00;1.00
56322;DHT22;42227;6.376;-10.782;2024-03-02T14:57:35;31.90;1.00
56322;DHT22;42227;6.376;-10.782;2024-03-02T15:00:04;32.00;1.00
56322;DHT22;42227;6.376;-10.782;2024-03-02T15:02:33;32.10;1.00
56322;DHT22;42227;6.376;-10.782;2024-03-02T15:05:02;32.10;1.00
56322;DHT22;42227;6.376;-10.782;2024-03-02T15:07:30;32.30;1.00
56322;DHT22;42227;6.376;-10.782;2024-03-02T15:09:58;32.10;1.00
56322;DHT22;42227;6.376;-10.782;2024-03-02T15:12:27;32.20;1.00
56322;DHT22;42227;6.376;-10.782;2024-03-02T15:14:56;32.10;1.00
56322;DHT22;42227;6.376;-10.782;2024-03-02T15:17:24;32.00;1.00
56322;DHT22;42227;6.376;-10.782;2024-03-02T15:19:53;31.90;1.00
56322;DHT22;42227;6.376;-10.782;2024-03-02T15:22:21;32.00;1.00
56322;DHT22;42227;6.376;-10.782;2024-03-02T15:24:49;32.00;1.00
56322;DHT22;42227;6.376;-10.782;2024-03-02T15:27:18;32.10;1.00
56322;DHT22;42227;6.376;-10.782;2024-03-02T15:29:46;32.10;1.00
56322;DHT22;42227;6.376;-10.782;2024-03-02T15:32:14;31.90;1.00
56322;DHT22;42227;6.376;-10.782;2024-03-02T15:34:43;31.70;1.00
56322;DHT22;42227;6.376;-10.782;2024-03-02T15:37:11;31.60;1.00
56322;DHT22;42227;6.376;-10.782;2024-03-02T15:39:40;31.60;1.00
56322;DHT22;42227;6.376;-10.782;2024-03-02T15:42:08;31.70;1.00